createdAt,value
2024-02-14T00:00:22.496Z,29.00
2024-02-14T00:05:47.055Z,29.67
2024-02-14T00:11:09.553Z,34.30
2024-02-14T00:16:32.536Z,35.05
2024-02-14T00:21:56.753Z,34.70
2024-02-14T00:27:19.658Z,35.15
2024-02-14T00:32:42.399Z,30.58
2024-02-14T00:38:06.448Z,28.08
2024-02-14T00:43:29.291Z,37.35
2024-02-14T00:48:51.775Z,33.42
2024-02-14T00:54:15.984Z,37.20
2024-02-14T00:59:38.514Z,34.75
2024-02-14T01:05:00.870Z,36.25
2024-02-14T01:10:24.706Z,38.17
2024-02-14T01:15:47.099Z,31.95
2024-02-14T01:21:09.635Z,45.60
2024-02-14T01:26:34.525Z,33.45
2024-02-14T01:31:57.533Z,34.00
2024-02-14T01:37:21.984Z,31.85
2024-02-14T01:42:45.936Z,36.83
2024-02-14T01:48:09.032Z,36.78
2024-02-14T01:53:32.274Z,38.53
2024-02-14T01:58:56.116Z,32.15
2024-02-14T02:04:19.257Z,37.60
2024-02-14T02:09:41.878Z,30.45
2024-02-14T02:15:06.258Z,41.97
2024-02-14T02:20:30.097Z,45.85
2024-02-14T02:25:54.320Z,51.72
2024-02-14T02:31:16.910Z,48.28
2024-02-14T02:36:40.384Z,40.45
2024-02-14T02:42:04.739Z,35.15
2024-02-14T02:47:27.262Z,47.50
2024-02-14T02:52:49.801Z,39.70
2024-02-14T02:58:13.709Z,34.80
2024-02-14T03:03:37.349Z,43.30
2024-02-14T03:08:59.532Z,38.75
2024-02-14T03:14:23.786Z,45.22
2024-02-14T03:25:09.897Z,41.90
2024-02-14T03:30:35.241Z,43.22
2024-02-14T03:35:57.818Z,40.55
2024-02-14T03:41:23.723Z,37.53
2024-02-14T03:46:48.737Z,41.22
2024-02-14T03:52:12.774Z,34.50
2024-02-14T03:57:39.711Z,43.75
2024-02-14T04:03:03.975Z,39.42
2024-02-14T04:08:26.655Z,47.00
2024-02-14T04:13:49.175Z,45.08
2024-02-14T04:19:14.504Z,29.30
2024-02-14T04:24:37.658Z,39.13
2024-02-14T04:30:00.561Z,35.03
2024-02-14T04:35:24.862Z,30.65
2024-02-14T04:40:47.522Z,38.17
2024-02-14T04:46:10.064Z,37.85
2024-02-14T04:51:33.760Z,38.70
2024-02-14T04:56:59.295Z,39.05
2024-02-14T05:02:24.684Z,34.10
2024-02-14T05:07:48.807Z,36.90
2024-02-14T05:13:11.977Z,38.00
2024-02-14T05:18:35.385Z,37.80
2024-02-14T05:23:59.529Z,37.63
2024-02-14T05:29:21.876Z,35.88
2024-02-14T05:34:45.097Z,57.97
2024-02-14T05:40:10.193Z,36.47
2024-02-14T05:45:32.701Z,31.92
2024-02-14T05:50:55.148Z,33.45
2024-02-14T05:56:18.967Z,33.95
2024-02-14T06:01:41.314Z,34.45
2024-02-14T06:07:04.008Z,33.65
2024-02-14T06:12:28.094Z,39.10
2024-02-14T06:17:50.721Z,38.38
2024-02-14T06:23:13.915Z,39.67
2024-02-14T06:28:37.608Z,47.70
2024-02-14T06:34:00.335Z,38.33
2024-02-14T06:39:23.009Z,41.72
2024-02-14T06:44:47.167Z,36.13
2024-02-14T06:50:11.752Z,40.72
2024-02-14T06:55:34.424Z,43.63
2024-02-14T07:00:58.065Z,41.83
2024-02-14T07:06:20.897Z,39.13
2024-02-14T07:11:43.693Z,62.00
2024-02-14T07:17:07.849Z,54.00
2024-02-14T07:22:31.679Z,39.30
2024-02-14T07:27:54.382Z,53.20
2024-02-14T07:33:18.124Z,46.60
2024-02-14T07:38:40.545Z,38.70
2024-02-14T07:44:03.591Z,33.88
2024-02-14T07:49:28.119Z,30.95
2024-02-14T07:54:53.990Z,41.28
2024-02-14T08:00:23.519Z,47.42
2024-02-14T08:11:10.087Z,35.50
2024-02-14T08:16:32.445Z,39.83
2024-02-14T08:21:59.176Z,49.15
2024-02-14T08:27:29.677Z,33.35
2024-02-14T08:32:52.922Z,32.05
2024-02-14T08:38:16.040Z,43.50
2024-02-14T08:49:11.552Z,38.67
2024-02-14T08:54:34.980Z,37.55
2024-02-14T09:00:00.957Z,29.27
2024-02-14T09:05:24.166Z,27.48
2024-02-14T09:10:47.161Z,32.60
2024-02-14T09:16:11.318Z,32.70
2024-02-14T09:21:35.348Z,33.95
2024-02-14T09:26:59.021Z,32.00
2024-02-14T09:32:23.355Z,27.77
2024-02-14T09:37:46.233Z,34.03
2024-02-14T09:43:14.593Z,23.85
2024-02-14T09:48:41.571Z,27.70
2024-02-14T09:54:05.454Z,39.50
2024-02-14T09:59:28.508Z,42.78
2024-02-14T10:04:52.077Z,43.92
2024-02-14T10:10:15.065Z,33.67
2024-02-14T10:15:37.784Z,24.35
2024-02-14T10:21:01.567Z,35.28
2024-02-14T10:26:25.567Z,27.60
2024-02-14T10:31:47.879Z,30.88
2024-02-14T10:37:11.951Z,30.83
2024-02-14T10:42:35.251Z,31.70
2024-02-14T10:47:59.055Z,36.88
2024-02-14T10:53:27.609Z,27.27
2024-02-14T10:58:54.609Z,34.10
2024-02-14T11:04:17.931Z,22.90
2024-02-14T11:09:42.601Z,24.85
2024-02-14T11:15:12.531Z,24.08
2024-02-14T11:20:35.563Z,31.50
2024-02-14T11:26:03.803Z,28.15
2024-02-14T11:31:33.302Z,35.03
2024-02-14T11:36:56.023Z,27.33
2024-02-14T11:42:19.853Z,32.63
2024-02-14T11:47:43.026Z,29.73
2024-02-14T11:53:07.434Z,22.85
2024-02-14T11:58:32.627Z,27.08
2024-02-14T12:03:57.137Z,31.60
2024-02-14T12:09:20.154Z,26.02
2024-02-14T12:14:46.666Z,23.80
2024-02-14T12:20:12.560Z,37.47
2024-02-14T12:25:36.318Z,38.05
2024-02-14T12:31:01.206Z,30.45
2024-02-14T12:36:23.865Z,39.72
2024-02-14T12:41:47.233Z,37.03
2024-02-14T12:47:11.613Z,39.83
2024-02-14T12:52:36.017Z,33.95
2024-02-14T12:57:58.622Z,29.77
2024-02-14T13:03:22.775Z,32.75
2024-02-14T13:08:45.324Z,32.83
2024-02-14T13:14:07.916Z,33.50
2024-02-14T13:19:32.198Z,29.38
2024-02-14T13:24:54.651Z,43.60
2024-02-14T13:30:19.931Z,38.88
2024-02-14T13:35:46.022Z,32.55
2024-02-14T13:41:08.683Z,30.90
2024-02-14T13:46:31.179Z,32.05
2024-02-14T13:51:54.902Z,41.08
2024-02-14T13:57:19.998Z,51.22
2024-02-14T14:02:44.867Z,41.13
2024-02-14T14:08:09.246Z,58.00
2024-02-14T14:13:32.165Z,60.22
2024-02-14T14:18:55.223Z,59.17
2024-02-14T14:24:18.684Z,64.30
2024-02-14T14:29:42.414Z,43.67
2024-02-14T14:35:05.233Z,51.55
2024-02-14T14:40:29.263Z,57.05
2024-02-14T14:45:51.913Z,43.80
2024-02-14T14:51:14.412Z,42.45
2024-02-14T14:56:38.561Z,36.15
2024-02-14T15:02:01.152Z,45.20
2024-02-14T15:07:23.948Z,32.10
2024-02-14T15:12:48.120Z,40.35
2024-02-14T15:18:10.985Z,44.40
2024-02-14T15:23:33.397Z,43.33
2024-02-14T15:29:17.978Z,49.28
2024-02-14T15:34:40.514Z,46.78
2024-02-14T15:40:03.041Z,42.42
2024-02-14T15:45:26.845Z,39.83
2024-02-14T15:50:49.898Z,47.92
2024-02-14T15:56:14.783Z,96.65
2024-02-14T16:01:39.417Z,95.82
2024-02-14T16:07:02.043Z,94.65
2024-02-14T16:12:24.810Z,113.35
2024-02-14T16:17:49.598Z,106.15
2024-02-14T16:23:12.062Z,100.20
2024-02-14T16:28:34.730Z,92.88
2024-02-14T16:33:58.843Z,101.35
2024-02-14T16:39:31.091Z,98.85
2024-02-14T16:45:08.400Z,102.40
2024-02-14T16:50:32.560Z,105.50
2024-02-14T16:55:55.989Z,93.15
2024-02-14T17:01:18.781Z,100.43
2024-02-14T17:06:43.007Z,68.50
2024-02-14T17:12:05.962Z,60.35
2024-02-14T17:17:28.953Z,55.65
2024-02-14T17:22:53.059Z,39.83
2024-02-14T17:28:15.612Z,38.58
2024-02-14T17:33:38.402Z,31.48
2024-02-14T17:39:06.636Z,39.30
2024-02-14T17:44:29.491Z,42.00
2024-02-14T17:49:54.733Z,42.75
2024-02-14T17:55:20.101Z,29.58
2024-02-14T18:00:45.287Z,44.42
2024-02-14T18:06:09.858Z,63.80
2024-02-14T18:11:33.783Z,39.67
2024-02-14T18:16:56.360Z,30.83
2024-02-14T18:22:18.970Z,31.38
2024-02-14T18:27:43.001Z,25.13
2024-02-14T18:33:06.187Z,23.48
2024-02-14T18:38:32.545Z,23.60
2024-02-14T18:43:59.948Z,18.17
2024-02-14T18:49:22.848Z,21.95
2024-02-14T18:54:45.363Z,23.52
2024-02-14T19:00:12.115Z,18.60
2024-02-14T19:05:34.961Z,19.52
2024-02-14T19:10:57.951Z,19.38
2024-02-14T19:16:28.131Z,24.63
2024-02-14T19:21:51.266Z,21.38
2024-02-14T19:27:14.779Z,24.33
2024-02-14T19:32:40.755Z,32.10
2024-02-14T19:38:03.268Z,20.00
2024-02-14T19:43:32.487Z,24.70
2024-02-14T19:49:03.038Z,24.30
2024-02-14T19:54:25.837Z,23.35
2024-02-14T19:59:48.530Z,19.95
2024-02-14T20:05:15.361Z,24.55
2024-02-14T20:10:38.051Z,28.42
2024-02-14T20:16:00.994Z,23.25
2024-02-14T20:21:25.005Z,22.25
2024-02-14T20:26:47.913Z,22.67
2024-02-14T20:32:10.479Z,23.63
2024-02-14T20:37:34.252Z,22.17
2024-02-14T20:42:56.779Z,27.73
2024-02-14T20:48:19.991Z,27.80
2024-02-14T20:53:44.192Z,31.95
2024-02-14T21:04:33.102Z,23.30
2024-02-14T21:09:58.982Z,34.83
2024-02-14T21:15:21.704Z,27.48
2024-02-14T21:20:44.021Z,26.98
2024-02-14T21:26:07.959Z,39.92
2024-02-14T21:31:32.009Z,27.83
2024-02-14T21:36:56.021Z,35.97
2024-02-14T21:42:21.346Z,40.08
2024-02-14T21:47:44.583Z,31.98
2024-02-14T21:53:07.246Z,34.30
2024-02-14T21:58:31.724Z,35.05
2024-02-14T22:03:54.485Z,33.67
2024-02-14T22:09:17.534Z,30.48
2024-02-14T22:14:42.492Z,31.80
2024-02-14T22:20:07.072Z,31.17
2024-02-14T22:25:29.911Z,29.60
2024-02-14T22:30:53.714Z,37.30
2024-02-14T22:36:16.073Z,33.30
2024-02-14T22:41:40.411Z,31.02
2024-02-14T22:47:09.267Z,34.88
2024-02-14T22:52:31.945Z,32.40
2024-02-14T22:57:55.232Z,29.40
2024-02-14T23:03:19.097Z,35.60
2024-02-14T23:08:41.701Z,34.28
2024-02-14T23:14:04.306Z,27.05
2024-02-14T23:19:29.632Z,27.52
2024-02-14T23:24:52.304Z,26.98
2024-02-14T23:30:15.195Z,25.35
2024-02-14T23:35:39.932Z,31.08
2024-02-14T23:41:03.313Z,26.90
2024-02-14T23:46:25.800Z,31.50
2024-02-14T23:51:49.957Z,26.58
2024-02-14T23:57:12.619Z,30.30
